createdAt,value
2023-03-30T18:23:49.332Z,20.45
2023-03-30T18:26:19.761Z,25.17
2023-03-30T18:28:50.277Z,25.70
2023-03-30T18:31:23.480Z,23.42
2023-03-30T18:33:54.039Z,22.83
2023-03-30T18:36:25.160Z,22.50
2023-03-30T18:38:58.217Z,22.88
2023-03-30T18:41:29.122Z,27.73
2023-03-30T18:44:00.144Z,21.85
2023-03-30T18:46:30.694Z,28.30
2023-03-30T18:49:01.287Z,21.85
2023-03-30T18:51:32.188Z,24.10
2023-03-30T18:54:05.508Z,24.27
2023-03-30T18:56:36.873Z,21.67
2023-03-30T18:59:07.806Z,25.70
2023-03-30T19:01:38.389Z,27.63
2023-03-30T19:04:08.974Z,22.35
2023-03-30T19:06:39.608Z,23.33
2023-03-30T19:09:13.116Z,20.20
2023-03-30T19:11:43.579Z,26.15
2023-03-30T19:14:14.895Z,18.10
2023-03-30T19:16:45.330Z,19.15
2023-03-30T19:19:15.925Z,16.50
2023-03-30T19:21:46.658Z,24.40
2023-03-30T19:24:19.671Z,17.35
2023-03-30T19:26:50.201Z,19.63
2023-03-30T19:29:20.575Z,19.20
2023-03-30T19:31:53.049Z,17.38
2023-03-30T19:34:23.997Z,20.83
2023-03-30T19:36:54.806Z,20.73
2023-03-30T19:39:28.456Z,20.45
2023-03-30T19:41:59.443Z,20.63
2023-03-30T19:44:30.789Z,28.88
2023-03-30T19:47:03.287Z,18.10
2023-03-30T19:49:34.850Z,18.67
2023-03-30T19:52:05.647Z,24.75
2023-03-30T19:54:39.170Z,15.15
2023-03-30T19:57:10.161Z,23.23
2023-03-30T19:59:41.408Z,24.85
2023-03-30T20:02:14.176Z,25.27
2023-03-30T20:04:45.747Z,20.60
2023-03-30T20:07:17.209Z,23.27
2023-03-30T20:09:50.673Z,20.40
2023-03-30T20:12:21.481Z,18.55
2023-03-30T20:14:52.278Z,20.50
2023-03-30T20:17:23.156Z,26.90
2023-03-30T20:19:54.918Z,18.08
2023-03-30T20:22:25.776Z,27.42
2023-03-30T20:24:59.891Z,23.80
2023-03-30T20:27:30.769Z,23.13
2023-03-30T20:30:01.682Z,24.70
2023-03-30T20:32:32.511Z,25.58
2023-03-30T20:35:03.647Z,24.58
2023-03-30T20:37:34.484Z,22.95
2023-03-30T20:40:10.259Z,20.80
2023-03-30T20:42:44.698Z,20.35
2023-03-30T20:45:17.814Z,20.10
2023-03-30T20:47:50.345Z,23.02
2023-03-30T20:50:21.461Z,18.08
2023-03-30T20:52:54.069Z,12.63
2023-03-30T20:55:27.618Z,19.80
2023-03-30T20:57:58.487Z,18.48
2023-03-30T21:00:29.577Z,13.75
2023-03-30T21:03:00.706Z,17.98
2023-03-30T21:05:31.876Z,18.23
2023-03-30T21:08:03.666Z,19.27
2023-03-30T21:10:37.064Z,22.63
2023-03-30T21:13:08.044Z,25.20
2023-03-30T21:15:38.993Z,22.63
2023-03-30T21:18:09.901Z,20.48
2023-03-30T21:20:40.984Z,23.45
2023-03-30T21:23:11.827Z,22.40
2023-03-30T21:25:48.763Z,19.10
2023-03-30T21:30:51.468Z,17.50
2023-03-30T21:33:22.536Z,18.15
2023-03-30T21:35:54.242Z,22.70
2023-03-30T21:38:26.755Z,18.77
2023-03-30T21:41:02.503Z,16.05
2023-03-30T21:43:34.846Z,19.33
2023-03-30T21:46:07.091Z,22.35
2023-03-30T21:48:39.956Z,28.20
2023-03-30T21:51:14.744Z,22.08
2023-03-30T21:53:48.397Z,21.20
2023-03-30T21:56:23.793Z,21.00
2023-03-30T21:58:55.303Z,20.27
2023-03-30T22:01:26.888Z,19.45
2023-03-30T22:03:58.458Z,16.63
2023-03-30T22:06:29.447Z,20.10
2023-03-30T22:09:00.496Z,23.10
2023-03-30T22:11:34.061Z,20.38
2023-03-30T22:14:04.882Z,16.75
2023-03-30T22:16:37.269Z,15.25
2023-03-30T22:19:08.295Z,15.30
2023-03-30T22:21:39.742Z,22.48
2023-03-30T22:24:11.466Z,18.25
2023-03-30T22:26:44.937Z,19.40
2023-03-30T22:29:16.464Z,21.90
2023-03-30T22:31:47.444Z,22.95
2023-03-30T22:34:18.354Z,24.13
2023-03-30T22:36:49.302Z,24.23
2023-03-30T22:39:20.449Z,25.67
2023-03-30T22:41:53.848Z,18.15
2023-03-30T22:44:25.046Z,19.67
2023-03-30T22:46:55.921Z,25.05
2023-03-30T22:49:27.136Z,22.27
2023-03-30T22:51:59.944Z,26.63
2023-03-30T22:54:30.978Z,20.67
2023-03-30T22:57:04.880Z,27.20
2023-03-30T22:59:36.097Z,27.08
2023-03-30T23:02:07.067Z,35.35
2023-03-30T23:04:40.161Z,25.58
2023-03-30T23:07:11.578Z,31.70
2023-03-30T23:09:47.580Z,30.77
2023-03-30T23:12:21.743Z,36.28
2023-03-30T23:14:52.559Z,27.10
2023-03-30T23:17:23.539Z,35.10
2023-03-30T23:19:54.470Z,39.83
2023-03-30T23:22:26.913Z,32.13
2023-03-30T23:24:58.148Z,34.70
2023-03-30T23:27:31.669Z,34.90
2023-03-30T23:30:02.453Z,42.65
2023-03-30T23:32:33.460Z,40.72
2023-03-30T23:35:04.302Z,44.13
2023-03-30T23:37:37.374Z,40.40
2023-03-30T23:40:09.906Z,33.50
2023-03-30T23:42:43.267Z,45.03
2023-03-30T23:45:14.701Z,28.75
2023-03-30T23:47:47.073Z,39.55
2023-03-30T23:50:18.333Z,39.00
2023-03-30T23:52:50.954Z,45.53
2023-03-30T23:55:22.499Z,38.90
2023-03-30T23:57:56.175Z,40.72
